createdAt,value
2018-12-25T00:02:36.519Z,102139.86
2018-12-25T00:06:10.534Z,102142.47
2018-12-25T00:09:17.461Z,102126.84
2018-12-25T00:12:36.003Z,102126.08
2018-12-25T00:15:38.538Z,102132.95
2018-12-25T00:18:39.057Z,102134.98
2018-12-25T00:21:32.984Z,102135.37
2018-12-25T00:24:14.086Z,102141.50
2018-12-25T00:26:50.628Z,102144.05
2018-12-25T00:29:17.768Z,102149.16
2018-12-25T00:31:48.723Z,102142.34
2018-12-25T00:34:30.142Z,102141.89
2018-12-25T00:37:26.589Z,102134.44
2018-12-25T00:39:54.159Z,102132.80
2018-12-25T00:42:25.122Z,102135.31
2018-12-25T00:44:53.679Z,102141.13
2018-12-25T00:47:21.639Z,102139.31
2018-12-25T00:49:58.023Z,102143.61
2018-12-25T00:52:40.993Z,102138.10
2018-12-25T00:55:08.453Z,102143.20
2018-12-25T00:57:43.942Z,102141.80
2018-12-25T01:00:22.257Z,102144.38
2018-12-25T01:02:50.034Z,102147.04
2018-12-25T01:05:17.684Z,102143.77
2018-12-25T01:07:47.578Z,102148.28
2018-12-25T01:10:23.998Z,102155.16
2018-12-25T01:12:54.079Z,102146.98
2018-12-25T01:15:25.559Z,102146.20
2018-12-25T01:17:55.254Z,102136.92
2018-12-25T01:20:34.203Z,102135.77
2018-12-25T01:23:06.995Z,102132.31
2018-12-25T01:25:41.158Z,102131.02
2018-12-25T01:28:23.359Z,102136.71
2018-12-25T01:30:54.160Z,102135.74
2018-12-25T01:33:35.148Z,102145.53
2018-12-25T01:36:12.024Z,102145.86
2018-12-25T01:38:39.719Z,102147.65
2018-12-25T01:41:13.233Z,102142.44
2018-12-25T01:43:41.114Z,102141.11
2018-12-25T01:46:13.454Z,102145.95
2018-12-25T01:48:45.526Z,102144.56
2018-12-25T01:51:13.299Z,102147.65
2018-12-25T01:53:43.199Z,102143.02
2018-12-25T01:56:11.437Z,102146.89
2018-12-25T01:58:39.019Z,102149.62
2018-12-25T02:01:28.214Z,102143.10
2018-12-25T02:04:04.960Z,102138.44
2018-12-25T02:06:32.694Z,102142.44
2018-12-25T02:09:17.653Z,102136.50
2018-12-25T02:11:50.387Z,102141.59
2018-12-25T02:14:24.718Z,102143.38
2018-12-25T02:17:02.624Z,102132.83
2018-12-25T02:19:40.238Z,102131.11
2018-12-25T02:22:03.524Z,102131.26
2018-12-25T02:24:55.020Z,102132.41
2018-12-25T02:27:26.618Z,102136.86
2018-12-25T02:29:57.784Z,102145.13
2018-12-25T02:32:31.139Z,102144.77
2018-12-25T02:34:58.794Z,102144.31
2018-12-25T02:37:27.918Z,102140.74
2018-12-25T02:40:03.469Z,102139.66
2018-12-25T02:42:38.839Z,102137.23
2018-12-25T02:45:15.799Z,102140.92
2018-12-25T02:47:44.365Z,102130.63
2018-12-25T02:50:12.030Z,102131.08
2018-12-25T02:52:39.659Z,102126.41
2018-12-25T02:58:22.072Z,102111.93
2018-12-25T03:00:54.880Z,102101.90
2018-12-25T03:03:25.304Z,102089.78
2018-12-25T03:06:01.253Z,102097.99
2018-12-25T03:08:28.975Z,102097.60
2018-12-25T03:10:56.509Z,102092.97
2018-12-25T03:13:44.328Z,102096.05
2018-12-25T03:16:11.882Z,102097.36
2018-12-25T03:18:51.318Z,102102.81
2018-12-25T03:21:26.379Z,102103.36
2018-12-25T03:23:57.739Z,102101.17
2018-12-25T03:26:25.500Z,102104.84
2018-12-25T03:28:53.502Z,102095.91
2018-12-25T03:31:21.814Z,102092.42
2018-12-25T03:33:49.374Z,102085.75
2018-12-25T03:36:17.073Z,102084.70
2018-12-25T03:38:44.556Z,102078.97
2018-12-25T03:41:12.101Z,102077.42
2018-12-25T03:43:39.613Z,102083.18
2018-12-25T03:46:07.125Z,102081.15
2018-12-25T03:48:34.721Z,102078.52
2018-12-25T03:51:07.003Z,102087.05
2018-12-25T03:53:34.340Z,102081.03
2018-12-25T03:56:02.048Z,102089.45
2018-12-25T03:58:29.715Z,102081.15
2018-12-25T04:00:57.391Z,102082.25
2018-12-25T04:03:24.916Z,102084.24
2018-12-25T04:05:52.355Z,102080.95
2018-12-25T04:08:20.102Z,102093.00
2018-12-25T04:10:48.042Z,102083.36
2018-12-25T04:13:15.624Z,102080.52
2018-12-25T04:15:43.149Z,102084.21
2018-12-25T04:18:10.810Z,102087.27
2018-12-25T04:21:16.492Z,102092.21
2018-12-25T04:23:15.679Z,102082.94
2018-12-25T04:25:43.126Z,102091.42
2018-12-25T04:28:10.765Z,102083.39
2018-12-25T04:30:38.199Z,102077.43
2018-12-25T04:33:10.228Z,102085.24
2018-12-25T04:35:37.740Z,102084.16
2018-12-25T04:38:05.320Z,102084.88
2018-12-25T04:40:32.816Z,102079.00
2018-12-25T04:43:00.429Z,102079.00
2018-12-25T04:45:28.104Z,102076.55
2018-12-25T04:47:55.734Z,102072.64
2018-12-25T04:50:29.149Z,102075.25
2018-12-25T04:52:52.674Z,102069.28
2018-12-25T04:55:20.163Z,102074.13
2018-12-25T04:57:47.697Z,102084.45
2018-12-25T05:00:15.136Z,102082.76
2018-12-25T05:02:42.712Z,102087.05
2018-12-25T05:05:10.251Z,102090.09
2018-12-25T05:07:37.768Z,102091.88
2018-12-25T05:10:05.331Z,102084.23
2018-12-25T05:12:32.902Z,102089.02
2018-12-25T05:15:00.390Z,102085.94
2018-12-25T05:17:27.990Z,102077.13
2018-12-25T05:19:55.924Z,102086.39
2018-12-25T05:22:23.438Z,102074.16
2018-12-25T05:24:50.996Z,102079.61
2018-12-25T05:27:18.546Z,102086.03
2018-12-25T05:29:46.076Z,102095.94
2018-12-25T05:32:13.552Z,102088.61
2018-12-25T05:34:41.161Z,102091.94
2018-12-25T05:37:08.702Z,102086.66
2018-12-25T05:39:36.256Z,102088.88
2018-12-25T05:42:03.835Z,102089.36
2018-12-25T05:44:31.476Z,102101.35
2018-12-25T05:46:59.016Z,102108.05
2018-12-25T05:49:26.527Z,102102.45
2018-12-25T05:51:54.222Z,102110.29
2018-12-25T05:54:21.780Z,102111.98
2018-12-25T05:56:49.276Z,102118.22
2018-12-25T05:59:16.857Z,102120.73
2018-12-25T06:01:44.371Z,102109.95
2018-12-25T06:04:12.575Z,102106.36
2018-12-25T06:06:40.081Z,102100.15
2018-12-25T06:09:07.626Z,102108.05
2018-12-25T06:11:35.201Z,102101.99
2018-12-25T06:14:02.802Z,102103.87
2018-12-25T06:16:30.264Z,102103.62
2018-12-25T06:18:57.856Z,102107.16
2018-12-25T06:21:25.346Z,102100.25
2018-12-25T06:23:53.031Z,102104.80
2018-12-25T06:26:20.877Z,102096.98
2018-12-25T06:28:48.366Z,102094.05
2018-12-25T06:31:16.946Z,102095.98
2018-12-25T06:33:48.220Z,102094.80
2018-12-25T06:36:15.786Z,102081.78
2018-12-25T06:38:44.287Z,102080.56
2018-12-25T06:41:11.922Z,102072.30
2018-12-25T06:43:39.483Z,102069.42
2018-12-25T06:46:07.027Z,102072.95
2018-12-25T06:48:34.550Z,102070.98
2018-12-25T06:51:04.014Z,102076.72
2018-12-25T06:53:31.764Z,102081.95
2018-12-25T06:55:59.362Z,102067.73
2018-12-25T06:58:26.887Z,102069.05
2018-12-25T07:00:54.466Z,102076.30
2018-12-25T07:03:22.071Z,102073.47
2018-12-25T07:05:49.646Z,102064.73
2018-12-25T07:08:17.170Z,102066.42
2018-12-25T07:10:44.887Z,102079.74
2018-12-25T07:13:12.416Z,102081.50
2018-12-25T07:15:39.952Z,102086.90
2018-12-25T07:18:07.711Z,102081.63
2018-12-25T07:20:35.406Z,102085.59
2018-12-25T07:23:02.906Z,102090.41
2018-12-25T07:25:30.481Z,102084.08
2018-12-25T07:27:57.990Z,102086.98
2018-12-25T07:30:25.526Z,102083.63
2018-12-25T07:32:53.095Z,102090.13
2018-12-25T07:35:20.695Z,102084.84
2018-12-25T07:37:48.200Z,102080.56
2018-12-25T07:40:15.755Z,102079.60
2018-12-25T07:42:43.420Z,102081.11
2018-12-25T07:45:11.055Z,102081.38
2018-12-25T07:47:38.575Z,102075.18
2018-12-25T07:50:06.726Z,102073.48
2018-12-25T07:52:34.235Z,102073.87
2018-12-25T07:55:01.801Z,102069.86
2018-12-25T07:57:29.405Z,102064.62
2018-12-25T07:59:56.900Z,102053.63
2018-12-25T08:02:24.481Z,102054.95
2018-12-25T08:04:52.003Z,102048.36
2018-12-25T08:07:19.691Z,102040.67
2018-12-25T08:09:47.460Z,102035.40
2018-12-25T08:12:15.290Z,102030.45
2018-12-25T08:14:45.045Z,102024.31
2018-12-25T08:17:12.610Z,102014.64
2018-12-25T08:23:14.481Z,102011.92
2018-12-25T08:25:47.850Z,102023.22
2018-12-25T08:28:15.396Z,102025.05
2018-12-25T08:30:43.101Z,102034.78
2018-12-25T08:33:10.820Z,102055.02
2018-12-25T08:35:38.295Z,102061.00
2018-12-25T08:38:06.010Z,102063.15
2018-12-25T08:40:33.725Z,102061.27
2018-12-25T08:43:01.474Z,102061.69
2018-12-25T08:45:51.540Z,102061.78
2018-12-25T08:48:19.270Z,102070.87
2018-12-25T08:51:00.913Z,102070.87
2018-12-25T08:53:28.526Z,102074.88
2018-12-25T08:55:56.460Z,102094.33
2018-12-25T08:58:32.400Z,102095.14
2018-12-25T09:00:59.958Z,102093.75
2018-12-25T09:03:27.495Z,102096.19
2018-12-25T09:05:55.060Z,102088.73
2018-12-25T09:08:25.238Z,102095.52
2018-12-25T09:10:52.856Z,102100.47
2018-12-25T09:13:20.904Z,102096.13
2018-12-25T09:15:48.600Z,102087.01
2018-12-25T09:18:34.074Z,102066.84
2018-12-25T09:21:37.400Z,102071.44
2018-12-25T09:36:03.371Z,102093.23
2018-12-25T09:54:12.454Z,102097.31
2018-12-25T10:08:05.664Z,102089.39
2018-12-25T10:10:33.975Z,102077.90
2018-12-25T10:13:38.584Z,102090.87
2018-12-25T10:17:06.280Z,102083.78
2018-12-25T10:20:35.642Z,102085.44
2018-12-25T10:27:18.451Z,102076.34
2018-12-25T10:30:32.218Z,102076.41
2018-12-25T11:13:13.147Z,102078.97
2018-12-25T11:39:29.770Z,102072.78
2018-12-25T11:40:44.354Z,102056.84
2018-12-25T12:00:51.476Z,102040.74
2018-12-25T12:51:39.384Z,102024.59
2018-12-25T12:58:20.660Z,102035.06
2018-12-25T13:08:35.943Z,102039.13
2018-12-25T13:11:05.253Z,102037.98
2018-12-25T13:13:36.324Z,102034.64
2018-12-25T13:25:15.586Z,102030.77
2018-12-25T13:28:13.374Z,102036.13
2018-12-25T13:31:02.022Z,102039.52
2018-12-25T13:37:18.820Z,102041.05
2018-12-25T13:44:21.800Z,102035.55
2018-12-25T14:02:20.706Z,102035.27
2018-12-25T14:30:03.784Z,102036.63
2018-12-25T14:32:53.015Z,102036.87
2018-12-25T14:36:19.884Z,102038.73
2018-12-25T14:42:16.255Z,102030.42
2018-12-25T14:45:36.464Z,102037.09
2018-12-25T14:48:06.900Z,102031.98
2018-12-25T14:50:49.106Z,102029.45
2018-12-25T14:57:23.586Z,102034.55
2018-12-25T14:59:54.431Z,102038.05
2018-12-25T15:02:21.857Z,102039.20
2018-12-25T15:04:49.466Z,102033.56
2018-12-25T15:08:00.743Z,102036.93
2018-12-25T15:10:51.804Z,102031.29
2018-12-25T15:28:56.751Z,102043.44
2018-12-25T15:35:23.010Z,102053.73
2018-12-25T16:12:41.962Z,102041.67
2018-12-25T16:15:28.980Z,102039.72
2018-12-25T16:19:18.749Z,102037.64
2018-12-25T16:22:20.417Z,102039.52
2018-12-25T16:25:09.095Z,102045.66
2018-12-25T16:30:46.892Z,102047.00
2018-12-25T16:33:38.644Z,102054.59
2018-12-25T16:44:58.721Z,102063.14
2018-12-25T16:48:06.866Z,102072.31
2018-12-25T17:00:54.833Z,102069.08
2018-12-25T17:06:12.940Z,102072.08
2018-12-25T17:08:42.961Z,102072.08
2018-12-25T17:15:16.826Z,102072.42
2018-12-25T17:18:12.601Z,102066.81
2018-12-25T17:20:44.280Z,102072.19
2018-12-25T17:23:16.309Z,102071.09
2018-12-25T17:25:55.848Z,102083.68
2018-12-25T17:28:45.740Z,102080.26
2018-12-25T17:31:13.691Z,102079.38
2018-12-25T17:33:41.708Z,102084.70
2018-12-25T17:40:32.220Z,102092.21
2018-12-25T17:42:49.192Z,102085.34
2018-12-25T17:46:14.826Z,102084.23
2018-12-25T17:48:53.496Z,102090.66
2018-12-25T17:51:22.081Z,102083.14
2018-12-25T17:57:14.800Z,102068.48
2018-12-25T18:00:20.205Z,102067.17
2018-12-25T18:11:01.730Z,102076.61
2018-12-25T18:21:28.366Z,102067.72
2018-12-25T18:24:21.905Z,102066.31
2018-12-25T18:26:49.796Z,102068.98
2018-12-25T19:09:41.632Z,102069.80
2018-12-25T19:13:28.655Z,102067.30
2018-12-25T19:20:36.909Z,102065.05
2018-12-25T19:23:18.046Z,102065.15
2018-12-25T19:23:33.146Z,102068.53
2018-12-25T19:36:25.867Z,102071.11
2018-12-25T19:42:36.261Z,102061.27
2018-12-25T19:52:33.010Z,102054.23
2018-12-25T20:03:18.311Z,102051.83
2018-12-25T20:16:32.770Z,102056.71
2018-12-25T20:20:02.376Z,102056.45
2018-12-25T20:33:16.550Z,102062.57
2018-12-25T20:40:09.077Z,102058.33
2018-12-25T20:44:23.905Z,102061.56
2018-12-25T20:53:49.635Z,102054.66
2018-12-25T21:08:08.542Z,102057.94
2018-12-25T21:11:36.095Z,102061.27
2018-12-25T21:14:48.551Z,102055.17
2018-12-25T21:17:56.695Z,102056.55
2018-12-25T21:21:35.318Z,102048.98
2018-12-25T21:24:32.752Z,102048.62
2018-12-25T21:27:33.338Z,102049.54
2018-12-25T21:30:30.309Z,102054.75
2018-12-25T21:38:01.691Z,102048.76
2018-12-25T21:45:08.948Z,102049.96
2018-12-25T21:49:00.480Z,102043.91
2018-12-25T21:51:30.991Z,102044.72
2018-12-25T21:54:34.072Z,102052.44
2018-12-25T21:57:23.526Z,102049.12
2018-12-25T22:00:18.426Z,102049.34
2018-12-25T22:03:04.972Z,102065.06
2018-12-25T22:05:33.331Z,102058.40
2018-12-25T22:08:01.771Z,102058.19
2018-12-25T22:10:33.765Z,102056.04
2018-12-25T22:17:31.399Z,102050.84
2018-12-25T22:20:52.160Z,102054.73
2018-12-25T22:36:19.096Z,102052.50
2018-12-25T22:39:31.022Z,102047.34
2018-12-25T22:42:01.588Z,102044.05
2018-12-25T22:44:38.671Z,102036.95
2018-12-25T22:47:16.080Z,102033.98
2018-12-25T22:49:56.771Z,102037.17
2018-12-25T22:52:24.966Z,102045.57
2018-12-25T22:55:35.820Z,102046.12
2018-12-25T22:58:09.745Z,102044.63
2018-12-25T23:07:48.874Z,102050.75
2018-12-25T23:10:44.161Z,102042.84
2018-12-25T23:13:44.972Z,102039.12
2018-12-25T23:17:12.557Z,102040.27
2018-12-25T23:19:49.301Z,102038.88
2018-12-25T23:22:37.542Z,102033.94
2018-12-25T23:26:05.016Z,102027.62
2018-12-25T23:29:05.176Z,102029.89
2018-12-25T23:32:55.404Z,102023.67
2018-12-25T23:35:24.444Z,102022.02
2018-12-25T23:38:55.836Z,102018.33
2018-12-25T23:41:36.549Z,102018.59
2018-12-25T23:44:04.367Z,102017.98
2018-12-25T23:47:16.432Z,102009.94
2018-12-25T23:49:47.417Z,102020.20
2018-12-25T23:52:24.710Z,102014.45
2018-12-25T23:55:24.933Z,102019.83
2018-12-25T23:58:26.461Z,102016.41
